sensor_id;sensor_type;location;lat;lon;timestamp;pressure;altitude;pressure_sealevel;temperature;humidity
15314;BME280;7757;52.626;4.746;2023-04-03T00:00:58;102992.19;;;14.59;62.31
15314;BME280;7757;52.626;4.746;2023-04-03T00:03:44;103002.03;;;14.68;62.17
15314;BME280;7757;52.626;4.746;2023-04-03T00:06:30;103005.03;;;14.65;62.68
15314;BME280;7757;52.626;4.746;2023-04-03T00:09:17;103019.53;;;14.64;63.03
15314;BME280;7757;52.626;4.746;2023-04-03T00:12:03;103006.84;;;14.57;62.47
15314;BME280;7757;52.626;4.746;2023-04-03T00:14:48;103021.69;;;14.61;62.59
15314;BME280;7757;52.626;4.746;2023-04-03T00:17:34;103014.25;;;14.55;62.83
15314;BME280;7757;52.626;4.746;2023-04-03T00:20:20;103025.38;;;14.60;62.66
15314;BME280;7757;52.626;4.746;2023-04-03T00:23:05;103025.53;;;14.58;62.82
15314;BME280;7757;52.626;4.746;2023-04-03T00:25:52;103018.72;;;14.46;63.37
15314;BME280;7757;52.626;4.746;2023-04-03T00:28:38;103027.00;;;14.52;62.52
15314;BME280;7757;52.626;4.746;2023-04-03T00:31:23;103027.84;;;14.53;63.41
15314;BME280;7757;52.626;4.746;2023-04-03T00:34:09;103029.69;;;14.52;62.58
15314;BME280;7757;52.626;4.746;2023-04-03T00:36:54;103028.88;;;14.52;62.74
15314;BME280;7757;52.626;4.746;2023-04-03T00:39:40;103030.03;;;14.49;63.20
15314;BME280;7757;52.626;4.746;2023-04-03T00:42:26;103035.41;;;14.49;62.31
15314;BME280;7757;52.626;4.746;2023-04-03T00:45:33;103032.56;;;14.51;62.24
15314;BME280;7757;52.626;4.746;2023-04-03T00:48:21;103035.41;;;14.49;62.90
15314;BME280;7757;52.626;4.746;2023-04-03T00:51:13;103032.34;;;14.44;63.14
15314;BME280;7757;52.626;4.746;2023-04-03T00:54:01;103019.50;;;14.38;62.99
15314;BME280;7757;52.626;4.746;2023-04-03T00:56:48;103025.63;;;14.48;62.23
15314;BME280;7757;52.626;4.746;2023-04-03T00:59:38;103028.34;;;14.48;63.12
15314;BME280;7757;52.626;4.746;2023-04-03T01:02:25;103032.19;;;14.46;62.73
15314;BME280;7757;52.626;4.746;2023-04-03T01:05:11;103032.34;;;14.44;63.62
15314;BME280;7757;52.626;4.746;2023-04-03T01:07:58;103034.72;;;14.47;62.46
15314;BME280;7757;52.626;4.746;2023-04-03T01:10:44;103028.97;;;14.42;62.31
15314;BME280;7757;52.626;4.746;2023-04-03T01:13:31;103029.63;;;14.44;62.31
15314;BME280;7757;52.626;4.746;2023-04-03T01:16:18;103037.56;;;14.46;63.25
15314;BME280;7757;52.626;4.746;2023-04-03T01:19:05;103036.19;;;14.42;62.30
15314;BME280;7757;52.626;4.746;2023-04-03T01:22:15;103038.88;;;14.42;62.64
15314;BME280;7757;52.626;4.746;2023-04-03T01:25:04;103042.56;;;14.41;62.23
15314;BME280;7757;52.626;4.746;2023-04-03T01:27:50;103032.81;;;14.40;63.04
15314;BME280;7757;52.626;4.746;2023-04-03T01:30:41;103041.44;;;14.43;63.15
15314;BME280;7757;52.626;4.746;2023-04-03T01:33:30;103033.28;;;14.35;62.62
15314;BME280;7757;52.626;4.746;2023-04-03T01:36:19;103042.56;;;14.41;62.86
15314;BME280;7757;52.626;4.746;2023-04-03T01:39:05;103047.13;;;14.40;62.08
15314;BME280;7757;52.626;4.746;2023-04-03T01:41:51;103046.59;;;14.37;62.97
15314;BME280;7757;52.626;4.746;2023-04-03T01:44:36;103041.34;;;14.35;62.67
15314;BME280;7757;52.626;4.746;2023-04-03T01:47:22;103037.13;;;14.33;62.47
15314;BME280;7757;52.626;4.746;2023-04-03T01:50:09;103037.66;;;14.36;63.27
15314;BME280;7757;52.626;4.746;2023-04-03T01:52:54;103042.88;;;14.38;63.04
15314;BME280;7757;52.626;4.746;2023-04-03T01:55:39;103034.13;;;14.36;63.40
15314;BME280;7757;52.626;4.746;2023-04-03T01:58:25;103032.28;;;14.36;62.77
15314;BME280;7757;52.626;4.746;2023-04-03T02:01:10;103032.59;;;14.33;62.77
15314;BME280;7757;52.626;4.746;2023-04-03T02:03:55;103035.13;;;14.35;62.64
15314;BME280;7757;52.626;4.746;2023-04-03T02:06:42;103040.50;;;14.35;62.41
15314;BME280;7757;52.626;4.746;2023-04-03T02:09:28;103039.50;;;14.36;63.26
15314;BME280;7757;52.626;4.746;2023-04-03T02:12:13;103033.59;;;14.32;63.21
15314;BME280;7757;52.626;4.746;2023-04-03T02:14:59;103033.59;;;14.32;63.20
15314;BME280;7757;52.626;4.746;2023-04-03T02:17:44;103048.34;;;14.28;62.94
15314;BME280;7757;52.626;4.746;2023-04-03T02:20:30;103036.56;;;14.29;62.21
15314;BME280;7757;52.626;4.746;2023-04-03T02:23:17;103051.88;;;14.29;62.91
15314;BME280;7757;52.626;4.746;2023-04-03T02:26:06;103050.19;;;14.28;62.44
15314;BME280;7757;52.626;4.746;2023-04-03T02:28:52;103056.25;;;14.30;63.07
15314;BME280;7757;52.626;4.746;2023-04-03T02:31:38;103051.78;;;14.21;63.03
15314;BME280;7757;52.626;4.746;2023-04-03T02:34:24;103063.66;;;14.28;62.10
15314;BME280;7757;52.626;4.746;2023-04-03T02:37:09;103064.63;;;14.27;62.57
15314;BME280;7757;52.626;4.746;2023-04-03T02:39:56;103068.19;;;14.27;62.39
15314;BME280;7757;52.626;4.746;2023-04-03T02:42:41;103073.56;;;14.27;62.78
15314;BME280;7757;52.626;4.746;2023-04-03T02:45:26;103062.41;;;14.22;62.82
15314;BME280;7757;52.626;4.746;2023-04-03T02:48:12;103079.13;;;14.26;62.29
15314;BME280;7757;52.626;4.746;2023-04-03T02:50:58;103068.66;;;14.23;62.56
15314;BME280;7757;52.626;4.746;2023-04-03T02:53:45;103080.09;;;14.25;63.09
15314;BME280;7757;52.626;4.746;2023-04-03T02:56:35;103079.56;;;14.21;62.96
15314;BME280;7757;52.626;4.746;2023-04-03T02:59:20;103086.78;;;14.21;61.76
15314;BME280;7757;52.626;4.746;2023-04-03T03:02:06;103081.41;;;14.21;62.92
15314;BME280;7757;52.626;4.746;2023-04-03T03:04:51;103089.47;;;14.21;62.65
15314;BME280;7757;52.626;4.746;2023-04-03T03:07:36;103086.78;;;14.21;62.13
15314;BME280;7757;52.626;4.746;2023-04-03T03:10:22;103083.09;;;14.22;63.08
15314;BME280;7757;52.626;4.746;2023-04-03T03:13:09;103089.94;;;14.16;62.74
15314;BME280;7757;52.626;4.746;2023-04-03T03:15:55;103088.63;;;14.20;63.31
15314;BME280;7757;52.626;4.746;2023-04-03T03:18:40;103086.25;;;14.17;63.11
15314;BME280;7757;52.626;4.746;2023-04-03T03:21:26;103083.56;;;14.17;62.57
15314;BME280;7757;52.626;4.746;2023-04-03T03:24:11;103088.94;;;14.17;62.33
15314;BME280;7757;52.626;4.746;2023-04-03T03:26:57;103086.56;;;14.14;62.00
15314;BME280;7757;52.626;4.746;2023-04-03T03:29:44;103078.66;;;14.13;62.32
15314;BME280;7757;52.626;4.746;2023-04-03T03:32:29;103076.25;;;14.10;62.38
15314;BME280;7757;52.626;4.746;2023-04-03T03:35:15;103086.72;;;14.13;62.33
15314;BME280;7757;52.626;4.746;2023-04-03T03:38:00;103079.31;;;14.15;63.07
15314;BME280;7757;52.626;4.746;2023-04-03T03:40:46;103078.78;;;14.11;61.83
15314;BME280;7757;52.626;4.746;2023-04-03T03:43:32;103073.19;;;14.05;62.31
15314;BME280;7757;52.626;4.746;2023-04-03T03:46:18;103082.13;;;14.05;62.18
15314;BME280;7757;52.626;4.746;2023-04-03T03:49:03;103094.41;;;14.08;62.41
15314;BME280;7757;52.626;4.746;2023-04-03T03:51:49;103092.03;;;14.05;63.05
15314;BME280;7757;52.626;4.746;2023-04-03T03:54:35;103093.41;;;14.09;62.81
15314;BME280;7757;52.626;4.746;2023-04-03T03:57:21;103104.47;;;14.06;62.98
15314;BME280;7757;52.626;4.746;2023-04-03T04:00:07;103100.97;;;14.05;61.97
15314;BME280;7757;52.626;4.746;2023-04-03T04:02:54;103087.63;;;14.04;61.92
15314;BME280;7757;52.626;4.746;2023-04-03T04:05:39;103089.66;;;14.02;62.81
15314;BME280;7757;52.626;4.746;2023-04-03T04:08:25;103098.25;;;14.05;62.77
15314;BME280;7757;52.626;4.746;2023-04-03T04:11:10;103093.31;;;14.01;62.81
15314;BME280;7757;52.626;4.746;2023-04-03T04:13:56;103079.88;;;14.01;62.37
15314;BME280;7757;52.626;4.746;2023-04-03T04:16:41;103091.47;;;14.01;62.43
15314;BME280;7757;52.626;4.746;2023-04-03T04:19:28;103098.56;;;14.02;62.74
15314;BME280;7757;52.626;4.746;2023-04-03T04:22:14;103087.41;;;13.97;62.71
15314;BME280;7757;52.626;4.746;2023-04-03T04:24:59;103083.84;;;13.96;63.17
15314;BME280;7757;52.626;4.746;2023-04-03T04:27:44;103079.13;;;13.90;62.53
15314;BME280;7757;52.626;4.746;2023-04-03T04:30:30;103094.63;;;13.96;63.01
15314;BME280;7757;52.626;4.746;2023-04-03T04:33:15;103094.94;;;13.93;61.95
15314;BME280;7757;52.626;4.746;2023-04-03T04:36:02;103086.47;;;13.88;61.64
15314;BME280;7757;52.626;4.746;2023-04-03T04:38:47;103092.22;;;13.93;62.05
15314;BME280;7757;52.626;4.746;2023-04-03T04:41:33;103094.09;;;13.93;62.41
15314;BME280;7757;52.626;4.746;2023-04-03T04:44:18;103099.47;;;13.93;61.96
15314;BME280;7757;52.626;4.746;2023-04-03T04:47:04;103100.63;;;13.90;62.12
15314;BME280;7757;52.626;4.746;2023-04-03T04:49:49;103093.31;;;13.83;62.67
15314;BME280;7757;52.626;4.746;2023-04-03T04:52:37;103110.56;;;13.90;62.19
15314;BME280;7757;52.626;4.746;2023-04-03T04:55:22;103116.06;;;13.88;61.79
15314;BME280;7757;52.626;4.746;2023-04-03T04:58:07;103108.28;;;13.85;62.82
15314;BME280;7757;52.626;4.746;2023-04-03T05:00:58;103115.22;;;13.88;62.46
15314;BME280;7757;52.626;4.746;2023-04-03T05:03:44;103107.44;;;13.85;61.93
15314;BME280;7757;52.626;4.746;2023-04-03T05:06:29;103107.91;;;13.80;62.32
15314;BME280;7757;52.626;4.746;2023-04-03T05:09:17;103106.63;;;13.84;62.66
15314;BME280;7757;52.626;4.746;2023-04-03T05:12:04;103112.69;;;13.86;62.09
15314;BME280;7757;52.626;4.746;2023-04-03T05:14:49;103110.13;;;13.85;61.63
15314;BME280;7757;52.626;4.746;2023-04-03T05:17:35;103112.81;;;13.85;62.06
15314;BME280;7757;52.626;4.746;2023-04-03T05:20:20;103117.09;;;13.87;61.75
15314;BME280;7757;52.626;4.746;2023-04-03T05:23:06;103101.84;;;13.78;62.06
15314;BME280;7757;52.626;4.746;2023-04-03T05:25:55;103108.47;;;13.84;62.98
15314;BME280;7757;52.626;4.746;2023-04-03T05:28:40;103125.97;;;13.88;61.75
15314;BME280;7757;52.626;4.746;2023-04-03T05:31:26;103125.28;;;13.86;61.77
15314;BME280;7757;52.626;4.746;2023-04-03T05:34:13;103127.44;;;13.82;62.09
15314;BME280;7757;52.626;4.746;2023-04-03T05:36:59;103131.81;;;13.83;62.88
15314;BME280;7757;52.626;4.746;2023-04-03T05:39:45;103131.06;;;13.91;62.27
15314;BME280;7757;52.626;4.746;2023-04-03T05:42:32;103118.69;;;13.98;61.54
15314;BME280;7757;52.626;4.746;2023-04-03T05:45:18;103125.84;;;14.07;60.63
15314;BME280;7757;52.626;4.746;2023-04-03T05:48:04;103140.06;;;14.17;61.27
15314;BME280;7757;52.626;4.746;2023-04-03T05:50:49;103129.59;;;14.14;61.10
15314;BME280;7757;52.626;4.746;2023-04-03T05:53:36;103144.09;;;14.31;60.47
15314;BME280;7757;52.626;4.746;2023-04-03T05:56:22;103147.06;;;14.37;60.31
15314;BME280;7757;52.626;4.746;2023-04-03T05:59:09;103126.09;;;14.31;61.06
15314;BME280;7757;52.626;4.746;2023-04-03T06:01:55;103150.66;;;14.46;60.02
15314;BME280;7757;52.626;4.746;2023-04-03T06:04:40;103149.63;;;14.47;60.63
15314;BME280;7757;52.626;4.746;2023-04-03T06:07:26;103146.63;;;14.50;60.39
15314;BME280;7757;52.626;4.746;2023-04-03T06:10:12;103155.31;;;14.62;59.98
15314;BME280;7757;52.626;4.746;2023-04-03T06:12:58;103152.72;;;14.70;61.09
15314;BME280;7757;52.626;4.746;2023-04-03T06:15:44;103163.88;;;15.00;60.25
15314;BME280;7757;52.626;4.746;2023-04-03T06:18:32;103166.16;;;15.13;61.03
15314;BME280;7757;52.626;4.746;2023-04-03T06:21:18;103156.91;;;15.16;61.43
15314;BME280;7757;52.626;4.746;2023-04-03T06:24:04;103165.03;;;15.24;61.15
15314;BME280;7757;52.626;4.746;2023-04-03T06:26:50;103151.09;;;15.28;61.47
15314;BME280;7757;52.626;4.746;2023-04-03T06:29:36;103144.22;;;15.42;61.13
15314;BME280;7757;52.626;4.746;2023-04-03T06:32:23;103157.72;;;15.68;61.35
15314;BME280;7757;52.626;4.746;2023-04-03T06:35:09;103174.16;;;15.98;60.94
15314;BME280;7757;52.626;4.746;2023-04-03T06:37:55;103175.75;;;16.25;59.82
15314;BME280;7757;52.626;4.746;2023-04-03T06:40:40;103177.63;;;16.49;59.29
15314;BME280;7757;52.626;4.746;2023-04-03T06:43:26;103177.34;;;16.68;59.32
15314;BME280;7757;52.626;4.746;2023-04-03T06:46:15;103173.28;;;16.80;58.81
15314;BME280;7757;52.626;4.746;2023-04-03T06:49:03;103182.22;;;17.05;58.76
15314;BME280;7757;52.626;4.746;2023-04-03T06:51:48;103171.25;;;17.06;58.31
15314;BME280;7757;52.626;4.746;2023-04-03T06:54:34;103183.03;;;17.21;58.05
15314;BME280;7757;52.626;4.746;2023-04-03T06:57:19;103191.28;;;17.44;58.02
15314;BME280;7757;52.626;4.746;2023-04-03T07:00:06;103195.13;;;17.58;58.10
15314;BME280;7757;52.626;4.746;2023-04-03T07:02:53;103195.44;;;17.71;57.53
15314;BME280;7757;52.626;4.746;2023-04-03T07:05:41;103200.41;;;17.90;57.35
15314;BME280;7757;52.626;4.746;2023-04-03T07:08:28;103199.78;;;18.11;56.74
15314;BME280;7757;52.626;4.746;2023-04-03T07:11:14;103209.00;;;18.32;56.39
15314;BME280;7757;52.626;4.746;2023-04-03T07:14:02;103206.88;;;18.42;56.42
15314;BME280;7757;52.626;4.746;2023-04-03T07:16:47;103206.31;;;18.55;55.95
15314;BME280;7757;52.626;4.746;2023-04-03T07:19:32;103208.78;;;18.65;55.59
15314;BME280;7757;52.626;4.746;2023-04-03T07:22:19;103208.34;;;18.76;55.22
15314;BME280;7757;52.626;4.746;2023-04-03T07:25:05;103219.09;;;18.92;54.39
15314;BME280;7757;52.626;4.746;2023-04-03T07:27:51;103225.06;;;19.02;54.54
15314;BME280;7757;52.626;4.746;2023-04-03T07:30:42;103226.69;;;19.11;54.55
15314;BME280;7757;52.626;4.746;2023-04-03T07:33:29;103220.81;;;19.22;53.86
15314;BME280;7757;52.626;4.746;2023-04-03T07:36:17;103229.34;;;19.34;53.54
15314;BME280;7757;52.626;4.746;2023-04-03T07:39:04;103228.47;;;19.04;52.53
15314;BME280;7757;52.626;4.746;2023-04-03T07:41:50;103226.84;;;18.95;51.97
15314;BME280;7757;52.626;4.746;2023-04-03T07:44:36;103230.97;;;19.06;51.74
15314;BME280;7757;52.626;4.746;2023-04-03T07:47:22;103225.63;;;18.98;52.15
15314;BME280;7757;52.626;4.746;2023-04-03T07:50:08;103224.31;;;18.93;51.71
15314;BME280;7757;52.626;4.746;2023-04-03T07:52:53;103232.88;;;19.20;51.01
15314;BME280;7757;52.626;4.746;2023-04-03T07:55:42;103237.53;;;19.11;50.91
15314;BME280;7757;52.626;4.746;2023-04-03T07:58:28;103239.25;;;18.89;52.70
15314;BME280;7757;52.626;4.746;2023-04-03T08:01:14;103244.09;;;19.54;51.49
15314;BME280;7757;52.626;4.746;2023-04-03T08:04:00;103247.34;;;19.93;50.75
15314;BME280;7757;52.626;4.746;2023-04-03T08:06:45;103250.00;;;20.01;50.51
15314;BME280;7757;52.626;4.746;2023-04-03T08:09:31;103249.50;;;20.13;50.74
15314;BME280;7757;52.626;4.746;2023-04-03T08:12:18;103234.69;;;20.15;50.60
15314;BME280;7757;52.626;4.746;2023-04-03T08:15:04;103252.31;;;20.34;49.89
15314;BME280;7757;52.626;4.746;2023-04-03T08:17:49;103255.06;;;20.40;50.42
15314;BME280;7757;52.626;4.746;2023-04-03T08:20:35;103251.78;;;20.45;49.65
15314;BME280;7757;52.626;4.746;2023-04-03T08:23:20;103237.94;;;20.40;50.37
15314;BME280;7757;52.626;4.746;2023-04-03T08:26:08;103250.31;;;20.64;49.84
15314;BME280;7757;52.626;4.746;2023-04-03T08:28:54;103259.69;;;20.61;50.08
15314;BME280;7757;52.626;4.746;2023-04-03T08:31:39;103259.75;;;20.68;49.71
15314;BME280;7757;52.626;4.746;2023-04-03T08:34:25;103272.41;;;20.75;49.77
15314;BME280;7757;52.626;4.746;2023-04-03T08:37:10;103276.41;;;20.79;49.82
15314;BME280;7757;52.626;4.746;2023-04-03T08:39:55;103280.63;;;20.82;49.69
15314;BME280;7757;52.626;4.746;2023-04-03T08:42:47;103259.38;;;20.71;49.88
15314;BME280;7757;52.626;4.746;2023-04-03T08:45:42;103265.13;;;20.82;50.00
15314;BME280;7757;52.626;4.746;2023-04-03T08:48:31;103260.78;;;20.88;49.73
15314;BME280;7757;52.626;4.746;2023-04-03T08:51:20;103270.00;;;20.87;50.13
15314;BME280;7757;52.626;4.746;2023-04-03T08:54:14;103270.66;;;20.89;49.58
15314;BME280;7757;52.626;4.746;2023-04-03T08:57:04;103253.22;;;20.62;49.70
15314;BME280;7757;52.626;4.746;2023-04-03T08:59:50;103264.59;;;20.00;49.79
15314;BME280;7757;52.626;4.746;2023-04-03T09:02:41;103256.38;;;20.44;49.58
15314;BME280;7757;52.626;4.746;2023-04-03T09:05:35;103241.31;;;20.63;49.30
15314;BME280;7757;52.626;4.746;2023-04-03T09:08:27;103272.28;;;20.83;49.28
15314;BME280;7757;52.626;4.746;2023-04-03T09:11:17;103275.63;;;20.85;48.89
15314;BME280;7757;52.626;4.746;2023-04-03T09:14:11;103273.75;;;20.86;49.32
15314;BME280;7757;52.626;4.746;2023-04-03T09:17:03;103261.63;;;20.88;49.18
15314;BME280;7757;52.626;4.746;2023-04-03T09:19:56;103256.97;;;20.82;49.14
15314;BME280;7757;52.626;4.746;2023-04-03T09:22:44;103259.06;;;20.80;49.44
15314;BME280;7757;52.626;4.746;2023-04-03T09:25:32;103235.75;;;20.71;49.92
15314;BME280;7757;52.626;4.746;2023-04-03T09:28:19;103245.78;;;20.71;49.40
15314;BME280;7757;52.626;4.746;2023-04-03T09:31:15;103233.88;;;20.72;49.46
15314;BME280;7757;52.626;4.746;2023-04-03T09:34:04;103235.34;;;20.74;49.44
15314;BME280;7757;52.626;4.746;2023-04-03T09:36:53;103222.59;;;20.75;49.64
15314;BME280;7757;52.626;4.746;2023-04-03T09:39:49;103227.19;;;20.74;49.88
15314;BME280;7757;52.626;4.746;2023-04-03T09:42:40;103236.66;;;20.78;49.24
15314;BME280;7757;52.626;4.746;2023-04-03T09:45:28;103240.16;;;20.72;49.31
15314;BME280;7757;52.626;4.746;2023-04-03T09:48:17;103240.41;;;20.77;49.08
15314;BME280;7757;52.626;4.746;2023-04-03T09:51:02;103227.75;;;20.70;49.16
15314;BME280;7757;52.626;4.746;2023-04-03T09:53:49;103237.22;;;20.74;49.18
15314;BME280;7757;52.626;4.746;2023-04-03T09:56:35;103232.38;;;20.69;49.34
15314;BME280;7757;52.626;4.746;2023-04-03T09:59:20;103229.22;;;20.66;49.30
15314;BME280;7757;52.626;4.746;2023-04-03T10:02:22;103234.25;;;20.47;49.88
15314;BME280;7757;52.626;4.746;2023-04-03T10:05:28;103235.19;;;19.89;49.27
15314;BME280;7757;52.626;4.746;2023-04-03T10:08:27;103216.84;;;19.62;48.72
15314;BME280;7757;52.626;4.746;2023-04-03T10:11:16;103217.59;;;19.56;49.18
15314;BME280;7757;52.626;4.746;2023-04-03T10:14:03;103221.16;;;19.42;48.26
15314;BME280;7757;52.626;4.746;2023-04-03T10:16:54;103231.69;;;19.37;48.20
15314;BME280;7757;52.626;4.746;2023-04-03T10:19:46;103226.72;;;19.26;48.39
15314;BME280;7757;52.626;4.746;2023-04-03T10:22:40;103226.81;;;19.18;48.33
15314;BME280;7757;52.626;4.746;2023-04-03T10:25:32;103236.03;;;19.09;48.56
15314;BME280;7757;52.626;4.746;2023-04-03T10:28:24;103226.13;;;19.01;48.79
15314;BME280;7757;52.626;4.746;2023-04-03T10:31:15;103227.63;;;18.58;50.00
15314;BME280;7757;52.626;4.746;2023-04-03T10:34:05;103237.75;;;18.33;50.94
15314;BME280;7757;52.626;4.746;2023-04-03T10:36:57;103213.13;;;18.20;50.66
15314;BME280;7757;52.626;4.746;2023-04-03T10:39:52;103225.19;;;19.09;49.67
15314;BME280;7757;52.626;4.746;2023-04-03T10:42:43;103229.31;;;19.42;49.48
15314;BME280;7757;52.626;4.746;2023-04-03T10:45:48;103228.25;;;19.58;49.08
15314;BME280;7757;52.626;4.746;2023-04-03T10:48:57;103225.84;;;19.63;49.11
15314;BME280;7757;52.626;4.746;2023-04-03T10:51:47;103218.94;;;19.60;48.98
15314;BME280;7757;52.626;4.746;2023-04-03T10:54:37;103195.78;;;19.49;49.18
15314;BME280;7757;52.626;4.746;2023-04-03T10:57:23;103207.50;;;19.65;49.48
15314;BME280;7757;52.626;4.746;2023-04-03T11:00:16;103208.72;;;19.62;49.08
15314;BME280;7757;52.626;4.746;2023-04-03T11:03:07;103208.34;;;19.65;49.19
15314;BME280;7757;52.626;4.746;2023-04-03T11:05:59;103213.28;;;19.62;49.23
15314;BME280;7757;52.626;4.746;2023-04-03T11:08:49;103193.19;;;19.56;49.55
15314;BME280;7757;52.626;4.746;2023-04-03T11:11:39;103203.66;;;19.59;49.27
15314;BME280;7757;52.626;4.746;2023-04-03T11:14:28;103197.00;;;19.62;49.35
15314;BME280;7757;52.626;4.746;2023-04-03T11:17:23;103200.09;;;19.59;49.58
15314;BME280;7757;52.626;4.746;2023-04-03T11:20:17;103190.47;;;19.56;49.38
15314;BME280;7757;52.626;4.746;2023-04-03T11:23:06;103188.59;;;19.57;49.27
15314;BME280;7757;52.626;4.746;2023-04-03T11:26:04;103185.56;;;19.52;49.46
15314;BME280;7757;52.626;4.746;2023-04-03T11:28:52;103183.91;;;19.51;49.51
15314;BME280;7757;52.626;4.746;2023-04-03T11:31:48;103176.78;;;19.49;49.80
15314;BME280;7757;52.626;4.746;2023-04-03T11:34:43;103173.53;;;19.54;49.97
15314;BME280;7757;52.626;4.746;2023-04-03T11:37:33;103164.44;;;19.47;50.05
15314;BME280;7757;52.626;4.746;2023-04-03T11:40:22;103168.09;;;19.54;49.70
15314;BME280;7757;52.626;4.746;2023-04-03T11:43:21;103152.56;;;19.48;49.80
15314;BME280;7757;52.626;4.746;2023-04-03T11:46:08;103167.78;;;19.49;50.53
15314;BME280;7757;52.626;4.746;2023-04-03T11:48:54;103158.91;;;19.40;50.36
15314;BME280;7757;52.626;4.746;2023-04-03T11:51:44;103153.31;;;19.42;50.58
15314;BME280;7757;52.626;4.746;2023-04-03T11:54:49;103143.81;;;19.38;49.99
15314;BME280;7757;52.626;4.746;2023-04-03T12:01:06;103145.34;;;19.40;50.19
15314;BME280;7757;52.626;4.746;2023-04-03T12:04:10;103149.09;;;19.39;50.63
15314;BME280;7757;52.626;4.746;2023-04-03T12:07:13;103137.25;;;18.88;49.45
15314;BME280;7757;52.626;4.746;2023-04-03T12:10:13;103130.25;;;18.57;50.43
15314;BME280;7757;52.626;4.746;2023-04-03T12:13:01;103134.81;;;18.93;49.86
15314;BME280;7757;52.626;4.746;2023-04-03T12:15:52;103120.88;;;19.11;50.26
15314;BME280;7757;52.626;4.746;2023-04-03T12:18:42;103109.78;;;19.06;50.18
15314;BME280;7757;52.626;4.746;2023-04-03T12:24:52;103120.88;;;19.11;50.17
15314;BME280;7757;52.626;4.746;2023-04-03T12:27:41;103114.34;;;19.06;50.19
15314;BME280;7757;52.626;4.746;2023-04-03T12:30:30;103112.84;;;19.03;50.66
15314;BME280;7757;52.626;4.746;2023-04-03T12:33:26;103113.50;;;19.05;49.91
15314;BME280;7757;52.626;4.746;2023-04-03T12:36:17;103103.13;;;18.94;49.70
15314;BME280;7757;52.626;4.746;2023-04-03T12:42:51;103112.00;;;19.03;50.07
15314;BME280;7757;52.626;4.746;2023-04-03T12:45:44;103109.19;;;18.96;49.99
15314;BME280;7757;52.626;4.746;2023-04-03T12:48:38;103120.50;;;19.00;50.05
15314;BME280;7757;52.626;4.746;2023-04-03T12:51:30;103099.66;;;19.00;50.29
15314;BME280;7757;52.626;4.746;2023-04-03T12:54:22;103097.22;;;19.05;50.20
15314;BME280;7757;52.626;4.746;2023-04-03T12:57:09;103092.28;;;19.09;49.78
15314;BME280;7757;52.626;4.746;2023-04-03T12:59:56;103085.34;;;19.06;49.65
15314;BME280;7757;52.626;4.746;2023-04-03T13:02:44;103072.34;;;19.02;49.48
15314;BME280;7757;52.626;4.746;2023-04-03T13:05:31;103072.16;;;19.03;49.60
15314;BME280;7757;52.626;4.746;2023-04-03T13:08:17;103067.13;;;19.00;49.81
15314;BME280;7757;52.626;4.746;2023-04-03T13:11:08;103065.03;;;19.02;50.06
15314;BME280;7757;52.626;4.746;2023-04-03T13:13:58;103087.59;;;19.03;49.78
15314;BME280;7757;52.626;4.746;2023-04-03T13:16:54;103088.44;;;19.03;49.63
15314;BME280;7757;52.626;4.746;2023-04-03T13:19:41;103085.09;;;19.01;49.66
15314;BME280;7757;52.626;4.746;2023-04-03T13:22:29;103072.63;;;18.92;49.43
15314;BME280;7757;52.626;4.746;2023-04-03T13:25:20;103077.38;;;18.90;49.48
15314;BME280;7757;52.626;4.746;2023-04-03T13:28:07;103065.91;;;18.88;50.02
15314;BME280;7757;52.626;4.746;2023-04-03T13:31:05;103079.56;;;18.94;49.85
15314;BME280;7757;52.626;4.746;2023-04-03T13:33:57;103087.50;;;18.96;49.84
15314;BME280;7757;52.626;4.746;2023-04-03T13:36:46;103080.84;;;18.99;49.89
15314;BME280;7757;52.626;4.746;2023-04-03T13:39:39;103058.41;;;18.90;49.96
15314;BME280;7757;52.626;4.746;2023-04-03T13:42:27;103065.91;;;18.88;50.25
15314;BME280;7757;52.626;4.746;2023-04-03T13:45:20;103067.84;;;18.94;49.96
15314;BME280;7757;52.626;4.746;2023-04-03T13:48:14;103072.63;;;18.92;50.16
15314;BME280;7757;52.626;4.746;2023-04-03T13:51:04;103060.69;;;18.49;50.79
15314;BME280;7757;52.626;4.746;2023-04-03T13:53:54;103067.09;;;18.48;50.79
15314;BME280;7757;52.626;4.746;2023-04-03T13:56:40;103069.25;;;18.38;50.68
15314;BME280;7757;52.626;4.746;2023-04-03T13:59:29;103072.97;;;18.37;50.35
15314;BME280;7757;52.626;4.746;2023-04-03T14:02:20;103072.81;;;18.38;50.87
15314;BME280;7757;52.626;4.746;2023-04-03T14:05:06;103062.31;;;18.35;50.63
15314;BME280;7757;52.626;4.746;2023-04-03T14:07:54;103065.19;;;18.34;50.57
15314;BME280;7757;52.626;4.746;2023-04-03T14:10:40;103053.88;;;18.30;50.47
15314;BME280;7757;52.626;4.746;2023-04-03T14:13:25;103067.44;;;18.30;50.78
15314;BME280;7757;52.626;4.746;2023-04-03T14:16:15;103062.84;;;18.31;50.82
15314;BME280;7757;52.626;4.746;2023-04-03T14:19:01;103050.72;;;18.27;50.40
15314;BME280;7757;52.626;4.746;2023-04-03T14:21:47;103054.19;;;18.35;50.98
15314;BME280;7757;52.626;4.746;2023-04-03T14:24:34;103053.50;;;18.33;50.07
15314;BME280;7757;52.626;4.746;2023-04-03T14:27:21;103054.19;;;18.35;50.65
15314;BME280;7757;52.626;4.746;2023-04-03T14:30:11;103050.00;;;18.33;50.96
15314;BME280;7757;52.626;4.746;2023-04-03T14:32:59;103040.28;;;18.38;50.82
15314;BME280;7757;52.626;4.746;2023-04-03T14:35:46;103019.59;;;18.23;50.54
15314;BME280;7757;52.626;4.746;2023-04-03T14:38:31;103032.31;;;18.37;50.72
15314;BME280;7757;52.626;4.746;2023-04-03T14:41:20;103031.09;;;18.39;50.69
15314;BME280;7757;52.626;4.746;2023-04-03T14:44:06;103024.88;;;18.39;50.42
15314;BME280;7757;52.626;4.746;2023-04-03T14:46:51;103021.00;;;18.33;50.37
15314;BME280;7757;52.626;4.746;2023-04-03T14:49:37;103024.56;;;18.34;50.08
15314;BME280;7757;52.626;4.746;2023-04-03T14:52:25;103027.75;;;18.37;49.75
15314;BME280;7757;52.626;4.746;2023-04-03T14:55:12;103015.94;;;18.30;50.15
15314;BME280;7757;52.626;4.746;2023-04-03T14:58:01;103022.31;;;18.23;50.45
15314;BME280;7757;52.626;4.746;2023-04-03T15:00:47;103020.94;;;18.04;51.23